sensor_id;sensor_type;location;lat;lon;timestamp;P1;durP1;ratioP1;P2;durP2;ratioP2
11777;SDS011;5946;51.770;8.548;2023-06-14T00:01:32;4.87;;;3.17;;
11777;SDS011;5946;51.770;8.548;2023-06-14T00:03:59;4.07;;;2.70;;
11777;SDS011;5946;51.770;8.548;2023-06-14T00:06:26;6.63;;;2.87;;
11777;SDS011;5946;51.770;8.548;2023-06-14T00:08:52;7.17;;;3.23;;
11777;SDS011;5946;51.770;8.548;2023-06-14T00:11:19;4.47;;;2.90;;
11777;SDS011;5946;51.770;8.548;2023-06-14T00:13:45;5.23;;;2.90;;
11777;SDS011;5946;51.770;8.548;2023-06-14T00:16:11;6.90;;;3.13;;
11777;SDS011;5946;51.770;8.548;2023-06-14T00:18:37;4.13;;;2.97;;
11777;SDS011;5946;51.770;8.548;2023-06-14T00:21:04;3.80;;;3.07;;
11777;SDS011;5946;51.770;8.548;2023-06-14T00:23:30;4.77;;;3.10;;
11777;SDS011;5946;51.770;8.548;2023-06-14T00:25:56;4.47;;;2.90;;
11777;SDS011;5946;51.770;8.548;2023-06-14T00:28:22;6.07;;;3.13;;
11777;SDS011;5946;51.770;8.548;2023-06-14T00:30:48;4.10;;;2.90;;
11777;SDS011;5946;51.770;8.548;2023-06-14T00:33:14;3.57;;;3.00;;
11777;SDS011;5946;51.770;8.548;2023-06-14T00:35:40;4.80;;;3.00;;
11777;SDS011;5946;51.770;8.548;2023-06-14T00:38:06;6.30;;;2.90;;
11777;SDS011;5946;51.770;8.548;2023-06-14T00:40:32;8.17;;;3.27;;
11777;SDS011;5946;51.770;8.548;2023-06-14T00:42:59;5.03;;;2.97;;
11777;SDS011;5946;51.770;8.548;2023-06-14T00:45:26;5.73;;;3.37;;
11777;SDS011;5946;51.770;8.548;2023-06-14T00:47:51;7.07;;;3.07;;
11777;SDS011;5946;51.770;8.548;2023-06-14T00:50:20;4.47;;;3.10;;
11777;SDS011;5946;51.770;8.548;2023-06-14T00:52:47;5.87;;;3.07;;
11777;SDS011;5946;51.770;8.548;2023-06-14T00:55:13;5.80;;;3.33;;
11777;SDS011;5946;51.770;8.548;2023-06-14T00:57:39;5.00;;;3.20;;
11777;SDS011;5946;51.770;8.548;2023-06-14T01:00:05;3.87;;;3.10;;
11777;SDS011;5946;51.770;8.548;2023-06-14T01:02:37;3.87;;;2.97;;
11777;SDS011;5946;51.770;8.548;2023-06-14T01:05:03;6.93;;;3.13;;
11777;SDS011;5946;51.770;8.548;2023-06-14T01:12:56;5.17;;;3.17;;
11777;SDS011;5946;51.770;8.548;2023-06-14T01:15:23;4.13;;;3.33;;
11777;SDS011;5946;51.770;8.548;2023-06-14T01:17:50;5.00;;;3.20;;
11777;SDS011;5946;51.770;8.548;2023-06-14T01:20:19;6.47;;;3.17;;
11777;SDS011;5946;51.770;8.548;2023-06-14T01:22:52;6.53;;;2.90;;
11777;SDS011;5946;51.770;8.548;2023-06-14T01:25:19;5.87;;;3.03;;
11777;SDS011;5946;51.770;8.548;2023-06-14T01:27:49;7.53;;;3.23;;
11777;SDS011;5946;51.770;8.548;2023-06-14T01:30:15;3.73;;;3.27;;
11777;SDS011;5946;51.770;8.548;2023-06-14T01:32:42;3.70;;;2.90;;
11777;SDS011;5946;51.770;8.548;2023-06-14T01:35:08;4.80;;;3.50;;
11777;SDS011;5946;51.770;8.548;2023-06-14T01:37:34;5.83;;;3.03;;
11777;SDS011;5946;51.770;8.548;2023-06-14T01:40:00;5.77;;;3.23;;
11777;SDS011;5946;51.770;8.548;2023-06-14T01:42:27;5.80;;;3.40;;
11777;SDS011;5946;51.770;8.548;2023-06-14T01:44:53;7.40;;;3.27;;
11777;SDS011;5946;51.770;8.548;2023-06-14T01:47:19;6.03;;;3.30;;
11777;SDS011;5946;51.770;8.548;2023-06-14T01:49:46;3.83;;;3.13;;
11777;SDS011;5946;51.770;8.548;2023-06-14T01:52:12;4.67;;;2.87;;
11777;SDS011;5946;51.770;8.548;2023-06-14T01:54:38;5.60;;;3.20;;
11777;SDS011;5946;51.770;8.548;2023-06-14T01:57:08;4.87;;;3.00;;
11777;SDS011;5946;51.770;8.548;2023-06-14T01:59:35;4.47;;;3.30;;
11777;SDS011;5946;51.770;8.548;2023-06-14T02:02:02;4.07;;;3.40;;
11777;SDS011;5946;51.770;8.548;2023-06-14T02:04:28;3.87;;;2.97;;
11777;SDS011;5946;51.770;8.548;2023-06-14T02:06:54;2.90;;;2.70;;
11777;SDS011;5946;51.770;8.548;2023-06-14T02:09:20;3.90;;;3.00;;
11777;SDS011;5946;51.770;8.548;2023-06-14T02:11:46;4.00;;;3.10;;
11777;SDS011;5946;51.770;8.548;2023-06-14T02:14:12;7.27;;;3.10;;
11777;SDS011;5946;51.770;8.548;2023-06-14T02:16:39;6.27;;;2.97;;
11777;SDS011;5946;51.770;8.548;2023-06-14T02:19:05;4.30;;;3.10;;
11777;SDS011;5946;51.770;8.548;2023-06-14T02:21:31;5.37;;;2.80;;
11777;SDS011;5946;51.770;8.548;2023-06-14T02:23:57;5.33;;;3.00;;
11777;SDS011;5946;51.770;8.548;2023-06-14T02:26:23;4.57;;;3.20;;
11777;SDS011;5946;51.770;8.548;2023-06-14T02:28:50;4.07;;;2.87;;
11777;SDS011;5946;51.770;8.548;2023-06-14T02:31:16;4.07;;;3.13;;
11777;SDS011;5946;51.770;8.548;2023-06-14T02:33:43;6.10;;;3.00;;
11777;SDS011;5946;51.770;8.548;2023-06-14T02:36:09;3.50;;;2.87;;
11777;SDS011;5946;51.770;8.548;2023-06-14T02:38:34;4.17;;;2.97;;
11777;SDS011;5946;51.770;8.548;2023-06-14T02:41:00;4.43;;;3.20;;
11777;SDS011;5946;51.770;8.548;2023-06-14T02:43:28;6.07;;;3.20;;
11777;SDS011;5946;51.770;8.548;2023-06-14T02:45:55;5.53;;;2.90;;
11777;SDS011;5946;51.770;8.548;2023-06-14T02:48:20;3.47;;;3.07;;
11777;SDS011;5946;51.770;8.548;2023-06-14T02:50:46;5.43;;;3.40;;
11777;SDS011;5946;51.770;8.548;2023-06-14T02:53:12;6.20;;;3.30;;
11777;SDS011;5946;51.770;8.548;2023-06-14T02:55:38;4.77;;;3.20;;
11777;SDS011;5946;51.770;8.548;2023-06-14T02:58:05;5.77;;;3.30;;
11777;SDS011;5946;51.770;8.548;2023-06-14T03:00:31;4.77;;;3.00;;
11777;SDS011;5946;51.770;8.548;2023-06-14T03:02:57;5.00;;;3.23;;
11777;SDS011;5946;51.770;8.548;2023-06-14T03:05:26;3.43;;;3.13;;
11777;SDS011;5946;51.770;8.548;2023-06-14T03:07:53;3.60;;;3.30;;
11777;SDS011;5946;51.770;8.548;2023-06-14T03:10:19;5.83;;;3.50;;
11777;SDS011;5946;51.770;8.548;2023-06-14T03:12:47;8.13;;;3.10;;
11777;SDS011;5946;51.770;8.548;2023-06-14T03:15:13;5.80;;;3.40;;
11777;SDS011;5946;51.770;8.548;2023-06-14T03:17:39;4.97;;;3.70;;
11777;SDS011;5946;51.770;8.548;2023-06-14T03:20:10;4.50;;;3.17;;
11777;SDS011;5946;51.770;8.548;2023-06-14T03:22:36;4.50;;;3.50;;
11777;SDS011;5946;51.770;8.548;2023-06-14T03:25:02;6.17;;;3.30;;
11777;SDS011;5946;51.770;8.548;2023-06-14T03:27:29;5.50;;;3.93;;
11777;SDS011;5946;51.770;8.548;2023-06-14T03:29:55;4.33;;;3.93;;
11777;SDS011;5946;51.770;8.548;2023-06-14T03:32:21;5.47;;;4.20;;
11777;SDS011;5946;51.770;8.548;2023-06-14T03:34:47;7.40;;;4.17;;
11777;SDS011;5946;51.770;8.548;2023-06-14T03:37:13;5.90;;;4.30;;
11777;SDS011;5946;51.770;8.548;2023-06-14T03:39:39;7.87;;;4.30;;
11777;SDS011;5946;51.770;8.548;2023-06-14T03:42:11;7.27;;;4.17;;
11777;SDS011;5946;51.770;8.548;2023-06-14T03:44:37;5.60;;;4.50;;
11777;SDS011;5946;51.770;8.548;2023-06-14T03:47:03;6.33;;;3.93;;
11777;SDS011;5946;51.770;8.548;2023-06-14T03:49:29;6.73;;;4.07;;
11777;SDS011;5946;51.770;8.548;2023-06-14T03:51:55;8.13;;;3.87;;
11777;SDS011;5946;51.770;8.548;2023-06-14T03:54:21;9.60;;;4.20;;
11777;SDS011;5946;51.770;8.548;2023-06-14T03:56:47;5.33;;;4.00;;
11777;SDS011;5946;51.770;8.548;2023-06-14T03:59:13;7.23;;;4.00;;
11777;SDS011;5946;51.770;8.548;2023-06-14T04:01:39;6.07;;;4.43;;
11777;SDS011;5946;51.770;8.548;2023-06-14T04:04:11;6.10;;;4.23;;
11777;SDS011;5946;51.770;8.548;2023-06-14T04:06:37;4.10;;;3.60;;
11777;SDS011;5946;51.770;8.548;2023-06-14T04:09:06;5.87;;;3.60;;
11777;SDS011;5946;51.770;8.548;2023-06-14T04:11:32;7.67;;;3.90;;
11777;SDS011;5946;51.770;8.548;2023-06-14T04:13:58;7.50;;;3.87;;
11777;SDS011;5946;51.770;8.548;2023-06-14T04:16:24;5.10;;;3.80;;
11777;SDS011;5946;51.770;8.548;2023-06-14T04:18:50;6.07;;;3.60;;
11777;SDS011;5946;51.770;8.548;2023-06-14T04:21:17;4.73;;;4.00;;
11777;SDS011;5946;51.770;8.548;2023-06-14T04:23:43;4.70;;;3.50;;
11777;SDS011;5946;51.770;8.548;2023-06-14T04:26:10;4.53;;;3.30;;
11777;SDS011;5946;51.770;8.548;2023-06-14T04:28:36;6.50;;;3.30;;
11777;SDS011;5946;51.770;8.548;2023-06-14T04:31:05;5.27;;;3.60;;
11777;SDS011;5946;51.770;8.548;2023-06-14T04:33:33;7.93;;;3.80;;
11777;SDS011;5946;51.770;8.548;2023-06-14T04:36:07;10.03;;;3.60;;
11777;SDS011;5946;51.770;8.548;2023-06-14T04:38:33;6.03;;;3.37;;
11777;SDS011;5946;51.770;8.548;2023-06-14T04:40:59;6.57;;;3.50;;
11777;SDS011;5946;51.770;8.548;2023-06-14T04:43:27;5.00;;;3.33;;
11777;SDS011;5946;51.770;8.548;2023-06-14T04:45:53;5.10;;;3.60;;
11777;SDS011;5946;51.770;8.548;2023-06-14T04:48:21;15.30;;;3.00;;
11777;SDS011;5946;51.770;8.548;2023-06-14T04:50:47;6.67;;;2.97;;
11777;SDS011;5946;51.770;8.548;2023-06-14T04:53:13;6.50;;;3.40;;
11777;SDS011;5946;51.770;8.548;2023-06-14T04:55:40;8.20;;;3.00;;
11777;SDS011;5946;51.770;8.548;2023-06-14T04:58:09;3.53;;;2.80;;
11777;SDS011;5946;51.770;8.548;2023-06-14T05:00:37;5.70;;;3.50;;
11777;SDS011;5946;51.770;8.548;2023-06-14T05:03:03;6.40;;;3.30;;
11777;SDS011;5946;51.770;8.548;2023-06-14T05:05:30;6.13;;;3.30;;
11777;SDS011;5946;51.770;8.548;2023-06-14T05:07:57;3.30;;;2.87;;
11777;SDS011;5946;51.770;8.548;2023-06-14T05:10:24;4.93;;;2.83;;
11777;SDS011;5946;51.770;8.548;2023-06-14T05:12:50;5.50;;;2.77;;
11777;SDS011;5946;51.770;8.548;2023-06-14T05:15:17;5.93;;;3.07;;
11777;SDS011;5946;51.770;8.548;2023-06-14T05:17:45;8.43;;;2.93;;
11777;SDS011;5946;51.770;8.548;2023-06-14T05:20:18;5.07;;;3.17;;
11777;SDS011;5946;51.770;8.548;2023-06-14T05:22:44;8.67;;;3.00;;
11777;SDS011;5946;51.770;8.548;2023-06-14T05:25:10;4.70;;;2.50;;
11777;SDS011;5946;51.770;8.548;2023-06-14T05:27:35;4.10;;;2.73;;
11777;SDS011;5946;51.770;8.548;2023-06-14T05:30:02;5.57;;;2.80;;
11777;SDS011;5946;51.770;8.548;2023-06-14T05:32:29;6.47;;;2.87;;
11777;SDS011;5946;51.770;8.548;2023-06-14T05:34:55;6.10;;;2.50;;
11777;SDS011;5946;51.770;8.548;2023-06-14T05:37:21;6.77;;;2.57;;
11777;SDS011;5946;51.770;8.548;2023-06-14T05:39:47;7.20;;;2.50;;
11777;SDS011;5946;51.770;8.548;2023-06-14T05:42:13;5.37;;;2.50;;
11777;SDS011;5946;51.770;8.548;2023-06-14T05:44:39;6.43;;;2.60;;
11777;SDS011;5946;51.770;8.548;2023-06-14T05:47:05;4.23;;;2.50;;
11777;SDS011;5946;51.770;8.548;2023-06-14T05:49:31;2.40;;;2.20;;
11777;SDS011;5946;51.770;8.548;2023-06-14T05:51:57;3.93;;;2.20;;
11777;SDS011;5946;51.770;8.548;2023-06-14T05:54:23;2.30;;;2.10;;
11777;SDS011;5946;51.770;8.548;2023-06-14T05:56:49;6.00;;;2.20;;
11777;SDS011;5946;51.770;8.548;2023-06-14T05:59:15;2.77;;;2.30;;
11777;SDS011;5946;51.770;8.548;2023-06-14T06:01:41;3.00;;;1.93;;
11777;SDS011;5946;51.770;8.548;2023-06-14T06:04:07;2.67;;;2.37;;
11777;SDS011;5946;51.770;8.548;2023-06-14T06:06:33;4.13;;;2.20;;
11777;SDS011;5946;51.770;8.548;2023-06-14T06:09:00;2.53;;;2.30;;
11777;SDS011;5946;51.770;8.548;2023-06-14T06:11:26;3.87;;;2.13;;
11777;SDS011;5946;51.770;8.548;2023-06-14T06:13:52;3.00;;;1.87;;
11777;SDS011;5946;51.770;8.548;2023-06-14T06:16:18;3.50;;;1.90;;
11777;SDS011;5946;51.770;8.548;2023-06-14T06:18:44;2.90;;;1.90;;
11777;SDS011;5946;51.770;8.548;2023-06-14T06:21:10;3.00;;;1.70;;
11777;SDS011;5946;51.770;8.548;2023-06-14T06:23:36;9.73;;;1.57;;
11777;SDS011;5946;51.770;8.548;2023-06-14T06:26:02;4.40;;;1.40;;
11777;SDS011;5946;51.770;8.548;2023-06-14T06:28:28;2.77;;;1.40;;
11777;SDS011;5946;51.770;8.548;2023-06-14T06:30:54;3.53;;;1.50;;
11777;SDS011;5946;51.770;8.548;2023-06-14T06:33:21;2.30;;;1.30;;
11777;SDS011;5946;51.770;8.548;2023-06-14T06:35:47;6.23;;;1.47;;
11777;SDS011;5946;51.770;8.548;2023-06-14T06:38:13;1.93;;;1.60;;
11777;SDS011;5946;51.770;8.548;2023-06-14T06:40:38;3.40;;;1.50;;
11777;SDS011;5946;51.770;8.548;2023-06-14T06:43:05;5.07;;;1.57;;
11777;SDS011;5946;51.770;8.548;2023-06-14T06:45:30;4.40;;;1.93;;
11777;SDS011;5946;51.770;8.548;2023-06-14T06:47:56;3.27;;;1.60;;
11777;SDS011;5946;51.770;8.548;2023-06-14T06:50:22;5.83;;;1.90;;
11777;SDS011;5946;51.770;8.548;2023-06-14T06:52:49;5.40;;;1.50;;
11777;SDS011;5946;51.770;8.548;2023-06-14T06:55:16;2.00;;;1.60;;
11777;SDS011;5946;51.770;8.548;2023-06-14T06:57:42;1.70;;;1.60;;
11777;SDS011;5946;51.770;8.548;2023-06-14T07:00:08;1.83;;;1.73;;
11777;SDS011;5946;51.770;8.548;2023-06-14T07:02:34;2.87;;;1.50;;
11777;SDS011;5946;51.770;8.548;2023-06-14T07:05:01;4.30;;;1.57;;
11777;SDS011;5946;51.770;8.548;2023-06-14T07:07:27;1.90;;;1.60;;
11777;SDS011;5946;51.770;8.548;2023-06-14T07:09:53;2.90;;;1.53;;
11777;SDS011;5946;51.770;8.548;2023-06-14T07:12:19;4.37;;;2.30;;
11777;SDS011;5946;51.770;8.548;2023-06-14T07:14:45;3.47;;;1.67;;
11777;SDS011;5946;51.770;8.548;2023-06-14T07:17:11;2.53;;;1.73;;
11777;SDS011;5946;51.770;8.548;2023-06-14T07:19:37;4.90;;;1.80;;
11777;SDS011;5946;51.770;8.548;2023-06-14T07:22:03;4.00;;;1.60;;
11777;SDS011;5946;51.770;8.548;2023-06-14T07:24:29;1.63;;;1.50;;
11777;SDS011;5946;51.770;8.548;2023-06-14T07:26:54;2.13;;;1.77;;
11777;SDS011;5946;51.770;8.548;2023-06-14T07:29:21;3.50;;;1.80;;
11777;SDS011;5946;51.770;8.548;2023-06-14T07:31:47;4.07;;;1.90;;
11777;SDS011;5946;51.770;8.548;2023-06-14T07:34:13;1.87;;;1.77;;
11777;SDS011;5946;51.770;8.548;2023-06-14T07:36:39;4.23;;;1.83;;
11777;SDS011;5946;51.770;8.548;2023-06-14T07:39:05;1.70;;;1.60;;
11777;SDS011;5946;51.770;8.548;2023-06-14T07:41:32;2.73;;;1.83;;
11777;SDS011;5946;51.770;8.548;2023-06-14T07:43:58;1.70;;;1.60;;
11777;SDS011;5946;51.770;8.548;2023-06-14T07:46:24;2.70;;;1.47;;
11777;SDS011;5946;51.770;8.548;2023-06-14T07:48:50;3.67;;;1.70;;
11777;SDS011;5946;51.770;8.548;2023-06-14T07:51:16;3.27;;;1.40;;
11777;SDS011;5946;51.770;8.548;2023-06-14T07:53:42;4.43;;;1.50;;
11777;SDS011;5946;51.770;8.548;2023-06-14T07:56:08;2.33;;;1.50;;
11777;SDS011;5946;51.770;8.548;2023-06-14T07:58:34;2.40;;;1.63;;
11777;SDS011;5946;51.770;8.548;2023-06-14T08:01:00;3.37;;;1.60;;
11777;SDS011;5946;51.770;8.548;2023-06-14T08:03:31;1.60;;;1.50;;
11777;SDS011;5946;51.770;8.548;2023-06-14T08:05:57;2.33;;;1.70;;
11777;SDS011;5946;51.770;8.548;2023-06-14T08:08:23;3.87;;;2.03;;
11777;SDS011;5946;51.770;8.548;2023-06-14T08:10:49;1.60;;;1.50;;
11777;SDS011;5946;51.770;8.548;2023-06-14T08:13:15;2.83;;;1.60;;
11777;SDS011;5946;51.770;8.548;2023-06-14T08:15:41;6.10;;;1.50;;
11777;SDS011;5946;51.770;8.548;2023-06-14T08:18:07;2.50;;;1.73;;
11777;SDS011;5946;51.770;8.548;2023-06-14T08:20:33;3.87;;;1.80;;
11777;SDS011;5946;51.770;8.548;2023-06-14T08:23:00;2.20;;;1.73;;
11777;SDS011;5946;51.770;8.548;2023-06-14T08:25:26;1.77;;;1.63;;
11777;SDS011;5946;51.770;8.548;2023-06-14T08:27:52;4.33;;;1.63;;
11777;SDS011;5946;51.770;8.548;2023-06-14T08:30:18;2.77;;;1.70;;
11777;SDS011;5946;51.770;8.548;2023-06-14T08:32:44;3.47;;;2.07;;
11777;SDS011;5946;51.770;8.548;2023-06-14T08:35:10;3.60;;;1.93;;
11777;SDS011;5946;51.770;8.548;2023-06-14T08:37:40;4.63;;;1.90;;
11777;SDS011;5946;51.770;8.548;2023-06-14T08:40:07;6.33;;;1.90;;
11777;SDS011;5946;51.770;8.548;2023-06-14T08:42:38;1.80;;;1.70;;
11777;SDS011;5946;51.770;8.548;2023-06-14T08:45:04;4.60;;;2.00;;
11777;SDS011;5946;51.770;8.548;2023-06-14T08:47:30;2.08;;;1.80;;
11777;SDS011;5946;51.770;8.548;2023-06-14T08:50:01;2.65;;;1.70;;
11777;SDS011;5946;51.770;8.548;2023-06-14T08:52:29;2.88;;;1.73;;
11777;SDS011;5946;51.770;8.548;2023-06-14T08:54:59;3.95;;;2.08;;
11777;SDS011;5946;51.770;8.548;2023-06-14T08:57:27;2.78;;;1.88;;
11777;SDS011;5946;51.770;8.548;2023-06-14T08:59:55;5.70;;;2.35;;
11777;SDS011;5946;51.770;8.548;2023-06-14T09:02:22;3.05;;;2.17;;
11777;SDS011;5946;51.770;8.548;2023-06-14T09:04:47;5.03;;;2.00;;
11777;SDS011;5946;51.770;8.548;2023-06-14T09:07:16;2.05;;;1.80;;
11777;SDS011;5946;51.770;8.548;2023-06-14T09:09:43;2.95;;;1.85;;
11777;SDS011;5946;51.770;8.548;2023-06-14T09:12:10;3.25;;;1.85;;
11777;SDS011;5946;51.770;8.548;2023-06-14T09:14:36;5.50;;;1.90;;
11777;SDS011;5946;51.770;8.548;2023-06-14T09:17:04;3.15;;;1.90;;
11777;SDS011;5946;51.770;8.548;2023-06-14T09:19:30;3.40;;;2.13;;
11777;SDS011;5946;51.770;8.548;2023-06-14T09:21:56;3.88;;;2.08;;
11777;SDS011;5946;51.770;8.548;2023-06-14T09:24:25;2.80;;;2.40;;
11777;SDS011;5946;51.770;8.548;2023-06-14T09:26:51;2.15;;;1.90;;
11777;SDS011;5946;51.770;8.548;2023-06-14T09:29:18;4.47;;;2.10;;
11777;SDS011;5946;51.770;8.548;2023-06-14T09:31:47;3.58;;;2.20;;
11777;SDS011;5946;51.770;8.548;2023-06-14T09:34:13;2.45;;;2.25;;
11777;SDS011;5946;51.770;8.548;2023-06-14T09:36:40;6.10;;;2.38;;
11777;SDS011;5946;51.770;8.548;2023-06-14T09:39:07;2.10;;;2.00;;
11777;SDS011;5946;51.770;8.548;2023-06-14T09:41:37;3.90;;;2.30;;
11777;SDS011;5946;51.770;8.548;2023-06-14T09:44:05;2.83;;;2.33;;
11777;SDS011;5946;51.770;8.548;2023-06-14T09:46:32;2.40;;;2.20;;
11777;SDS011;5946;51.770;8.548;2023-06-14T09:48:58;4.22;;;2.38;;
11777;SDS011;5946;51.770;8.548;2023-06-14T09:51:24;3.55;;;2.38;;
11777;SDS011;5946;51.770;8.548;2023-06-14T09:53:51;4.28;;;2.25;;
11777;SDS011;5946;51.770;8.548;2023-06-14T09:56:24;4.93;;;2.17;;
11777;SDS011;5946;51.770;8.548;2023-06-14T09:58:55;2.20;;;2.00;;
11777;SDS011;5946;51.770;8.548;2023-06-14T10:01:25;2.72;;;2.33;;
11777;SDS011;5946;51.770;8.548;2023-06-14T10:03:55;4.28;;;2.30;;
11777;SDS011;5946;51.770;8.548;2023-06-14T10:06:22;7.88;;;2.65;;
11777;SDS011;5946;51.770;8.548;2023-06-14T10:08:49;3.08;;;2.80;;
11777;SDS011;5946;51.770;8.548;2023-06-14T10:11:16;3.05;;;2.45;;
11777;SDS011;5946;51.770;8.548;2023-06-14T10:13:42;3.28;;;2.40;;
11777;SDS011;5946;51.770;8.548;2023-06-14T10:18:42;3.63;;;2.40;;
11777;SDS011;5946;51.770;8.548;2023-06-14T10:21:21;4.63;;;2.20;;
11777;SDS011;5946;51.770;8.548;2023-06-14T10:23:48;4.75;;;2.38;;
11777;SDS011;5946;51.770;8.548;2023-06-14T10:26:19;3.80;;;2.67;;
11777;SDS011;5946;51.770;8.548;2023-06-14T10:28:55;2.55;;;2.35;;
11777;SDS011;5946;51.770;8.548;2023-06-14T10:31:22;5.43;;;2.42;;
11777;SDS011;5946;51.770;8.548;2023-06-14T10:33:49;3.00;;;2.30;;
11777;SDS011;5946;51.770;8.548;2023-06-14T10:39:01;3.28;;;2.03;;
11777;SDS011;5946;51.770;8.548;2023-06-14T10:41:29;2.30;;;2.10;;
11777;SDS011;5946;51.770;8.548;2023-06-14T10:46:36;3.80;;;2.22;;
11777;SDS011;5946;51.770;8.548;2023-06-14T10:49:02;2.50;;;2.08;;
11777;SDS011;5946;51.770;8.548;2023-06-14T10:51:29;3.53;;;2.05;;
11777;SDS011;5946;51.770;8.548;2023-06-14T10:53:56;2.65;;;2.30;;
11777;SDS011;5946;51.770;8.548;2023-06-14T10:56:28;2.80;;;2.45;;
11777;SDS011;5946;51.770;8.548;2023-06-14T10:58:56;2.97;;;2.20;;
11777;SDS011;5946;51.770;8.548;2023-06-14T11:01:34;2.70;;;2.13;;
11777;SDS011;5946;51.770;8.548;2023-06-14T11:04:08;2.58;;;2.15;;
11777;SDS011;5946;51.770;8.548;2023-06-14T11:06:41;2.55;;;1.98;;
11777;SDS011;5946;51.770;8.548;2023-06-14T11:11:41;2.97;;;2.00;;
11777;SDS011;5946;51.770;8.548;2023-06-14T11:14:08;2.42;;;2.22;;
11777;SDS011;5946;51.770;8.548;2023-06-14T11:16:34;3.55;;;2.00;;
11777;SDS011;5946;51.770;8.548;2023-06-14T11:19:00;3.33;;;2.20;;
11777;SDS011;5946;51.770;8.548;2023-06-14T11:21:28;2.28;;;2.08;;
11777;SDS011;5946;51.770;8.548;2023-06-14T11:23:56;3.42;;;2.10;;
11777;SDS011;5946;51.770;8.548;2023-06-14T11:26:29;4.80;;;2.28;;
11777;SDS011;5946;51.770;8.548;2023-06-14T11:28:59;3.38;;;2.33;;
11777;SDS011;5946;51.770;8.548;2023-06-14T11:31:26;3.70;;;2.40;;
11777;SDS011;5946;51.770;8.548;2023-06-14T11:33:55;2.42;;;2.20;;
11777;SDS011;5946;51.770;8.548;2023-06-14T11:36:21;2.53;;;2.28;;
11777;SDS011;5946;51.770;8.548;2023-06-14T11:38:47;2.50;;;2.30;;
11777;SDS011;5946;51.770;8.548;2023-06-14T11:41:13;2.30;;;2.10;;
11777;SDS011;5946;51.770;8.548;2023-06-14T11:43:40;5.07;;;2.15;;
11777;SDS011;5946;51.770;8.548;2023-06-14T11:46:12;9.13;;;2.30;;
11777;SDS011;5946;51.770;8.548;2023-06-14T11:48:40;2.90;;;2.30;;
11777;SDS011;5946;51.770;8.548;2023-06-14T11:51:06;2.63;;;2.13;;
11777;SDS011;5946;51.770;8.548;2023-06-14T11:53:32;2.35;;;2.22;;
11777;SDS011;5946;51.770;8.548;2023-06-14T11:55:58;3.92;;;2.17;;
11777;SDS011;5946;51.770;8.548;2023-06-14T11:58:25;3.97;;;2.33;;
11777;SDS011;5946;51.770;8.548;2023-06-14T12:00:52;5.82;;;2.72;;
11777;SDS011;5946;51.770;8.548;2023-06-14T12:03:23;5.03;;;2.38;;
11777;SDS011;5946;51.770;8.548;2023-06-14T12:06:04;7.40;;;2.60;;
11777;SDS011;5946;51.770;8.548;2023-06-14T12:08:35;2.42;;;2.00;;
11777;SDS011;5946;51.770;8.548;2023-06-14T12:11:05;2.65;;;2.17;;
11777;SDS011;5946;51.770;8.548;2023-06-14T12:13:33;7.60;;;2.45;;
11777;SDS011;5946;51.770;8.548;2023-06-14T12:15:59;2.42;;;2.10;;
11777;SDS011;5946;51.770;8.548;2023-06-14T12:18:31;2.78;;;2.38;;
11777;SDS011;5946;51.770;8.548;2023-06-14T12:20:59;3.95;;;2.17;;
11777;SDS011;5946;51.770;8.548;2023-06-14T12:23:47;3.78;;;2.22;;
11777;SDS011;5946;51.770;8.548;2023-06-14T12:26:17;2.30;;;2.10;;
11777;SDS011;5946;51.770;8.548;2023-06-14T12:28:46;6.05;;;2.35;;
11777;SDS011;5946;51.770;8.548;2023-06-14T12:31:14;5.55;;;2.35;;
11777;SDS011;5946;51.770;8.548;2023-06-14T12:33:40;5.53;;;2.20;;
11777;SDS011;5946;51.770;8.548;2023-06-14T12:36:07;2.47;;;2.28;;
11777;SDS011;5946;51.770;8.548;2023-06-14T12:38:33;2.35;;;2.17;;
11777;SDS011;5946;51.770;8.548;2023-06-14T12:40:59;2.97;;;2.28;;
11777;SDS011;5946;51.770;8.548;2023-06-14T12:43:26;3.70;;;2.13;;
11777;SDS011;5946;51.770;8.548;2023-06-14T12:45:52;2.92;;;2.20;;
11777;SDS011;5946;51.770;8.548;2023-06-14T12:48:18;4.57;;;2.10;;
11777;SDS011;5946;51.770;8.548;2023-06-14T12:50:44;2.35;;;2.15;;
11777;SDS011;5946;51.770;8.548;2023-06-14T12:53:10;3.33;;;2.00;;
11777;SDS011;5946;51.770;8.548;2023-06-14T12:55:37;4.35;;;2.28;;
11777;SDS011;5946;51.770;8.548;2023-06-14T12:58:03;4.90;;;2.10;;
11777;SDS011;5946;51.770;8.548;2023-06-14T13:00:29;3.95;;;2.10;;
11777;SDS011;5946;51.770;8.548;2023-06-14T13:02:58;6.15;;;2.20;;
11777;SDS011;5946;51.770;8.548;2023-06-14T13:05:24;2.08;;;1.80;;
11777;SDS011;5946;51.770;8.548;2023-06-14T13:07:50;3.40;;;1.92;;
11777;SDS011;5946;51.770;8.548;2023-06-14T13:10:16;2.28;;;1.85;;
11777;SDS011;5946;51.770;8.548;2023-06-14T13:12:42;3.63;;;2.28;;
11777;SDS011;5946;51.770;8.548;2023-06-14T13:15:09;4.03;;;1.90;;
11777;SDS011;5946;51.770;8.548;2023-06-14T13:17:35;2.42;;;2.10;;
11777;SDS011;5946;51.770;8.548;2023-06-14T13:20:07;3.00;;;2.00;;
11777;SDS011;5946;51.770;8.548;2023-06-14T13:22:34;2.42;;;2.00;;
11777;SDS011;5946;51.770;8.548;2023-06-14T13:25:01;3.40;;;1.92;;
11777;SDS011;5946;51.770;8.548;2023-06-14T13:27:27;5.85;;;2.58;;
11777;SDS011;5946;51.770;8.548;2023-06-14T13:29:53;2.65;;;2.25;;
11777;SDS011;5946;51.770;8.548;2023-06-14T13:32:23;4.35;;;1.75;;
11777;SDS011;5946;51.770;8.548;2023-06-14T13:34:49;3.42;;;2.08;;
11777;SDS011;5946;51.770;8.548;2023-06-14T13:37:15;3.60;;;2.13;;
11777;SDS011;5946;51.770;8.548;2023-06-14T13:39:41;2.45;;;2.17;;
11777;SDS011;5946;51.770;8.548;2023-06-14T13:42:07;3.10;;;1.90;;
11777;SDS011;5946;51.770;8.548;2023-06-14T13:44:33;1.98;;;1.88;;
11777;SDS011;5946;51.770;8.548;2023-06-14T13:46:59;3.60;;;1.80;;
11777;SDS011;5946;51.770;8.548;2023-06-14T13:49:25;1.70;;;1.60;;
11777;SDS011;5946;51.770;8.548;2023-06-14T13:51:51;3.03;;;1.92;;
11777;SDS011;5946;51.770;8.548;2023-06-14T13:54:21;3.72;;;1.90;;
11777;SDS011;5946;51.770;8.548;2023-06-14T13:56:47;1.77;;;1.67;;
11777;SDS011;5946;51.770;8.548;2023-06-14T13:59:13;1.70;;;1.60;;
11777;SDS011;5946;51.770;8.548;2023-06-14T14:01:40;2.22;;;1.67;;
11777;SDS011;5946;51.770;8.548;2023-06-14T14:04:06;3.33;;;1.92;;
11777;SDS011;5946;51.770;8.548;2023-06-14T14:06:33;2.42;;;2.10;;
11777;SDS011;5946;51.770;8.548;2023-06-14T14:09:00;1.60;;;1.50;;
11777;SDS011;5946;51.770;8.548;2023-06-14T14:11:26;7.72;;;2.08;;
11777;SDS011;5946;51.770;8.548;2023-06-14T14:13:53;2.42;;;2.10;;
11777;SDS011;5946;51.770;8.548;2023-06-14T14:16:18;4.93;;;2.20;;
11777;SDS011;5946;51.770;8.548;2023-06-14T14:18:45;3.50;;;2.00;;
11777;SDS011;5946;51.770;8.548;2023-06-14T14:21:11;1.92;;;1.73;;
11777;SDS011;5946;51.770;8.548;2023-06-14T14:23:38;3.00;;;1.70;;
11777;SDS011;5946;51.770;8.548;2023-06-14T14:26:04;4.82;;;1.92;;
11777;SDS011;5946;51.770;8.548;2023-06-14T14:28:30;2.38;;;1.80;;
11777;SDS011;5946;51.770;8.548;2023-06-14T14:30:57;5.43;;;2.17;;
11777;SDS011;5946;51.770;8.548;2023-06-14T14:33:23;9.85;;;2.60;;
11777;SDS011;5946;51.770;8.548;2023-06-14T14:35:49;6.07;;;4.70;;
11777;SDS011;5946;51.770;8.548;2023-06-14T14:38:15;3.00;;;1.75;;
11777;SDS011;5946;51.770;8.548;2023-06-14T14:40:42;1.83;;;1.42;;
11777;SDS011;5946;51.770;8.548;2023-06-14T14:43:08;3.72;;;1.90;;
11777;SDS011;5946;51.770;8.548;2023-06-14T14:45:34;4.82;;;1.60;;
11777;SDS011;5946;51.770;8.548;2023-06-14T14:48:01;2.78;;;1.70;;
11777;SDS011;5946;51.770;8.548;2023-06-14T14:50:27;1.90;;;1.55;;
11777;SDS011;5946;51.770;8.548;2023-06-14T14:52:53;2.00;;;1.70;;
11777;SDS011;5946;51.770;8.548;2023-06-14T14:55:19;2.25;;;2.05;;
11777;SDS011;5946;51.770;8.548;2023-06-14T14:57:45;1.58;;;1.48;;
11777;SDS011;5946;51.770;8.548;2023-06-14T15:00:13;2.58;;;1.80;;
11777;SDS011;5946;51.770;8.548;2023-06-14T15:02:39;3.28;;;1.80;;
11777;SDS011;5946;51.770;8.548;2023-06-14T15:05:05;2.08;;;1.85;;
11777;SDS011;5946;51.770;8.548;2023-06-14T15:07:31;3.65;;;1.83;;
11777;SDS011;5946;51.770;8.548;2023-06-14T15:09:58;6.95;;;6.28;;
11777;SDS011;5946;51.770;8.548;2023-06-14T15:12:24;4.55;;;4.07;;
11777;SDS011;5946;51.770;8.548;2023-06-14T15:14:50;9.60;;;2.40;;